sensor_id;sensor_type;location;lat;lon;timestamp;temperature;humidity
44223;DHT22;29895;48.804;9.386;2023-04-03T00:01:30;3.70;99.90
44223;DHT22;29895;48.804;9.386;2023-04-03T00:03:56;3.70;99.90
44223;DHT22;29895;48.804;9.386;2023-04-03T00:06:23;3.60;99.90
44223;DHT22;29895;48.804;9.386;2023-04-03T00:08:49;3.70;99.90
44223;DHT22;29895;48.804;9.386;2023-04-03T00:11:15;3.70;99.90
44223;DHT22;29895;48.804;9.386;2023-04-03T00:13:42;3.70;99.90
44223;DHT22;29895;48.804;9.386;2023-04-03T00:16:08;3.70;99.90
44223;DHT22;29895;48.804;9.386;2023-04-03T00:18:34;3.60;99.90
44223;DHT22;29895;48.804;9.386;2023-04-03T00:21:00;3.60;99.90
44223;DHT22;29895;48.804;9.386;2023-04-03T00:23:26;3.60;99.90
44223;DHT22;29895;48.804;9.386;2023-04-03T00:25:52;3.60;99.90
44223;DHT22;29895;48.804;9.386;2023-04-03T00:28:18;3.70;99.90
44223;DHT22;29895;48.804;9.386;2023-04-03T00:30:44;3.70;99.90
44223;DHT22;29895;48.804;9.386;2023-04-03T00:33:13;3.70;99.90
44223;DHT22;29895;48.804;9.386;2023-04-03T00:35:39;3.60;99.90
44223;DHT22;29895;48.804;9.386;2023-04-03T00:38:04;3.60;99.90
44223;DHT22;29895;48.804;9.386;2023-04-03T00:40:37;3.60;99.90
44223;DHT22;29895;48.804;9.386;2023-04-03T00:43:13;3.60;99.90
44223;DHT22;29895;48.804;9.386;2023-04-03T00:45:42;3.60;99.90
44223;DHT22;29895;48.804;9.386;2023-04-03T00:48:15;3.50;99.90
44223;DHT22;29895;48.804;9.386;2023-04-03T00:50:45;3.60;99.90
44223;DHT22;29895;48.804;9.386;2023-04-03T00:53:19;3.50;99.90
44223;DHT22;29895;48.804;9.386;2023-04-03T00:55:48;3.50;99.90
44223;DHT22;29895;48.804;9.386;2023-04-03T00:58:15;3.50;99.90
44223;DHT22;29895;48.804;9.386;2023-04-03T01:00:46;3.50;99.90
44223;DHT22;29895;48.804;9.386;2023-04-03T01:03:13;3.50;99.90
44223;DHT22;29895;48.804;9.386;2023-04-03T01:05:40;3.40;99.90
44223;DHT22;29895;48.804;9.386;2023-04-03T01:08:06;3.30;99.90
44223;DHT22;29895;48.804;9.386;2023-04-03T01:10:32;3.20;99.90
44223;DHT22;29895;48.804;9.386;2023-04-03T01:12:59;3.20;99.90
44223;DHT22;29895;48.804;9.386;2023-04-03T01:15:26;3.20;99.90
44223;DHT22;29895;48.804;9.386;2023-04-03T01:17:57;3.20;99.90
44223;DHT22;29895;48.804;9.386;2023-04-03T01:25:47;3.30;99.90
44223;DHT22;29895;48.804;9.386;2023-04-03T01:28:35;3.30;99.90
44223;DHT22;29895;48.804;9.386;2023-04-03T01:33:32;3.30;99.90
44223;DHT22;29895;48.804;9.386;2023-04-03T01:35:58;3.30;99.90
44223;DHT22;29895;48.804;9.386;2023-04-03T01:38:24;3.30;99.90
44223;DHT22;29895;48.804;9.386;2023-04-03T01:40:49;3.30;99.90
44223;DHT22;29895;48.804;9.386;2023-04-03T01:43:15;3.20;99.90
44223;DHT22;29895;48.804;9.386;2023-04-03T01:45:41;3.20;99.90
44223;DHT22;29895;48.804;9.386;2023-04-03T01:48:06;3.20;99.90
44223;DHT22;29895;48.804;9.386;2023-04-03T01:50:32;3.20;99.90
44223;DHT22;29895;48.804;9.386;2023-04-03T01:52:58;3.20;99.90
44223;DHT22;29895;48.804;9.386;2023-04-03T01:55:23;3.30;99.90
44223;DHT22;29895;48.804;9.386;2023-04-03T01:57:49;3.30;99.90
44223;DHT22;29895;48.804;9.386;2023-04-03T02:00:15;3.20;99.90
44223;DHT22;29895;48.804;9.386;2023-04-03T02:02:41;3.30;99.90
44223;DHT22;29895;48.804;9.386;2023-04-03T02:05:07;3.30;99.90
44223;DHT22;29895;48.804;9.386;2023-04-03T02:07:33;3.30;99.90
44223;DHT22;29895;48.804;9.386;2023-04-03T02:09:59;3.30;99.90
44223;DHT22;29895;48.804;9.386;2023-04-03T02:12:24;3.30;99.90
44223;DHT22;29895;48.804;9.386;2023-04-03T02:14:50;3.30;99.90
44223;DHT22;29895;48.804;9.386;2023-04-03T02:17:16;3.30;99.90
44223;DHT22;29895;48.804;9.386;2023-04-03T02:19:41;3.30;99.90
44223;DHT22;29895;48.804;9.386;2023-04-03T02:22:07;3.30;99.90
44223;DHT22;29895;48.804;9.386;2023-04-03T02:24:32;3.40;99.90
44223;DHT22;29895;48.804;9.386;2023-04-03T02:26:58;3.30;99.90
44223;DHT22;29895;48.804;9.386;2023-04-03T02:29:24;3.40;99.90
44223;DHT22;29895;48.804;9.386;2023-04-03T02:31:50;3.40;99.90
44223;DHT22;29895;48.804;9.386;2023-04-03T02:34:16;3.40;99.90
44223;DHT22;29895;48.804;9.386;2023-04-03T02:36:42;3.50;99.90
44223;DHT22;29895;48.804;9.386;2023-04-03T02:39:08;3.60;99.90
44223;DHT22;29895;48.804;9.386;2023-04-03T02:41:34;3.80;99.90
44223;DHT22;29895;48.804;9.386;2023-04-03T02:44:03;3.80;99.90
44223;DHT22;29895;48.804;9.386;2023-04-03T02:46:29;3.90;99.90
44223;DHT22;29895;48.804;9.386;2023-04-03T02:48:55;3.90;99.90
44223;DHT22;29895;48.804;9.386;2023-04-03T02:51:21;3.90;99.90
44223;DHT22;29895;48.804;9.386;2023-04-03T02:53:48;3.90;99.90
44223;DHT22;29895;48.804;9.386;2023-04-03T02:56:17;4.00;99.90
44223;DHT22;29895;48.804;9.386;2023-04-03T02:58:44;4.00;99.90
44223;DHT22;29895;48.804;9.386;2023-04-03T03:01:11;4.00;99.90
44223;DHT22;29895;48.804;9.386;2023-04-03T03:03:36;4.00;99.90
44223;DHT22;29895;48.804;9.386;2023-04-03T03:06:07;4.00;99.90
44223;DHT22;29895;48.804;9.386;2023-04-03T03:08:34;4.00;99.90
44223;DHT22;29895;48.804;9.386;2023-04-03T03:11:00;4.00;99.90
44223;DHT22;29895;48.804;9.386;2023-04-03T03:13:26;4.10;99.90
44223;DHT22;29895;48.804;9.386;2023-04-03T03:15:52;4.10;99.90
44223;DHT22;29895;48.804;9.386;2023-04-03T03:18:17;4.10;99.90
44223;DHT22;29895;48.804;9.386;2023-04-03T03:20:43;4.20;99.90
44223;DHT22;29895;48.804;9.386;2023-04-03T03:23:09;4.20;99.90
44223;DHT22;29895;48.804;9.386;2023-04-03T03:25:41;4.10;99.90
44223;DHT22;29895;48.804;9.386;2023-04-03T03:28:07;4.20;99.90
44223;DHT22;29895;48.804;9.386;2023-04-03T03:30:33;4.10;99.90
44223;DHT22;29895;48.804;9.386;2023-04-03T03:32:58;4.20;99.90
44223;DHT22;29895;48.804;9.386;2023-04-03T03:35:24;4.20;99.90
44223;DHT22;29895;48.804;9.386;2023-04-03T03:37:50;4.20;99.90
44223;DHT22;29895;48.804;9.386;2023-04-03T03:40:15;4.20;99.90
44223;DHT22;29895;48.804;9.386;2023-04-03T03:42:41;4.30;99.90
44223;DHT22;29895;48.804;9.386;2023-04-03T03:45:07;4.20;99.90
44223;DHT22;29895;48.804;9.386;2023-04-03T03:47:33;4.20;99.90
44223;DHT22;29895;48.804;9.386;2023-04-03T03:49:59;4.20;99.90
44223;DHT22;29895;48.804;9.386;2023-04-03T03:52:25;4.20;99.90
44223;DHT22;29895;48.804;9.386;2023-04-03T03:54:51;4.30;99.90
44223;DHT22;29895;48.804;9.386;2023-04-03T03:57:17;4.30;99.90
44223;DHT22;29895;48.804;9.386;2023-04-03T03:59:43;4.20;99.90
44223;DHT22;29895;48.804;9.386;2023-04-03T04:02:10;4.30;99.90
44223;DHT22;29895;48.804;9.386;2023-04-03T04:04:36;4.30;99.90
44223;DHT22;29895;48.804;9.386;2023-04-03T04:07:03;4.20;99.90
44223;DHT22;29895;48.804;9.386;2023-04-03T04:09:29;4.20;99.90
44223;DHT22;29895;48.804;9.386;2023-04-03T04:11:55;4.20;99.90
44223;DHT22;29895;48.804;9.386;2023-04-03T04:14:20;4.20;99.90
44223;DHT22;29895;48.804;9.386;2023-04-03T04:16:47;4.20;99.90
44223;DHT22;29895;48.804;9.386;2023-04-03T04:19:12;4.30;99.90
44223;DHT22;29895;48.804;9.386;2023-04-03T04:21:38;4.30;99.90
44223;DHT22;29895;48.804;9.386;2023-04-03T04:24:05;4.20;99.90
44223;DHT22;29895;48.804;9.386;2023-04-03T04:26:31;4.20;99.90
44223;DHT22;29895;48.804;9.386;2023-04-03T04:28:56;4.10;99.90
44223;DHT22;29895;48.804;9.386;2023-04-03T04:31:22;4.00;99.90
44223;DHT22;29895;48.804;9.386;2023-04-03T04:33:47;4.00;99.90
44223;DHT22;29895;48.804;9.386;2023-04-03T04:36:13;4.00;99.90
44223;DHT22;29895;48.804;9.386;2023-04-03T04:38:40;4.00;99.90
44223;DHT22;29895;48.804;9.386;2023-04-03T04:41:06;4.00;99.90
44223;DHT22;29895;48.804;9.386;2023-04-03T04:43:31;4.10;99.90
44223;DHT22;29895;48.804;9.386;2023-04-03T04:46:04;4.20;99.90
44223;DHT22;29895;48.804;9.386;2023-04-03T04:48:30;4.20;99.90
44223;DHT22;29895;48.804;9.386;2023-04-03T04:50:56;4.30;99.90
44223;DHT22;29895;48.804;9.386;2023-04-03T04:53:22;4.30;99.90
44223;DHT22;29895;48.804;9.386;2023-04-03T04:55:47;4.30;99.90
44223;DHT22;29895;48.804;9.386;2023-04-03T04:58:13;4.20;99.90
44223;DHT22;29895;48.804;9.386;2023-04-03T05:00:39;4.30;99.90
44223;DHT22;29895;48.804;9.386;2023-04-03T05:03:05;4.30;99.90
44223;DHT22;29895;48.804;9.386;2023-04-03T05:05:31;4.30;99.90
44223;DHT22;29895;48.804;9.386;2023-04-03T05:07:56;4.30;99.90
44223;DHT22;29895;48.804;9.386;2023-04-03T05:10:22;4.30;99.90
44223;DHT22;29895;48.804;9.386;2023-04-03T05:12:48;4.30;99.90
44223;DHT22;29895;48.804;9.386;2023-04-03T05:15:14;4.20;99.90
44223;DHT22;29895;48.804;9.386;2023-04-03T05:17:39;4.10;99.90
44223;DHT22;29895;48.804;9.386;2023-04-03T05:20:05;4.00;99.90
44223;DHT22;29895;48.804;9.386;2023-04-03T05:22:31;4.00;99.90
44223;DHT22;29895;48.804;9.386;2023-04-03T05:24:57;4.10;99.90
44223;DHT22;29895;48.804;9.386;2023-04-03T05:27:23;4.10;99.90
44223;DHT22;29895;48.804;9.386;2023-04-03T05:29:50;4.10;99.90
44223;DHT22;29895;48.804;9.386;2023-04-03T05:32:16;4.00;99.90
44223;DHT22;29895;48.804;9.386;2023-04-03T05:34:42;4.00;99.90
44223;DHT22;29895;48.804;9.386;2023-04-03T05:37:07;4.00;99.90
44223;DHT22;29895;48.804;9.386;2023-04-03T05:39:33;4.00;99.90
44223;DHT22;29895;48.804;9.386;2023-04-03T05:41:59;4.10;99.90
44223;DHT22;29895;48.804;9.386;2023-04-03T05:44:25;4.20;99.90
44223;DHT22;29895;48.804;9.386;2023-04-03T05:46:50;4.20;99.90
44223;DHT22;29895;48.804;9.386;2023-04-03T05:49:16;4.30;99.90
44223;DHT22;29895;48.804;9.386;2023-04-03T05:51:42;4.30;99.90
44223;DHT22;29895;48.804;9.386;2023-04-03T05:54:40;4.30;99.90
44223;DHT22;29895;48.804;9.386;2023-04-03T05:57:06;4.30;99.90
44223;DHT22;29895;48.804;9.386;2023-04-03T05:59:32;4.30;99.90
44223;DHT22;29895;48.804;9.386;2023-04-03T06:01:58;4.20;99.90
44223;DHT22;29895;48.804;9.386;2023-04-03T06:04:23;4.20;99.90
44223;DHT22;29895;48.804;9.386;2023-04-03T06:09:21;4.30;99.90
44223;DHT22;29895;48.804;9.386;2023-04-03T06:11:47;4.40;99.90
44223;DHT22;29895;48.804;9.386;2023-04-03T06:14:13;4.40;99.90
44223;DHT22;29895;48.804;9.386;2023-04-03T06:16:39;4.40;99.90
44223;DHT22;29895;48.804;9.386;2023-04-03T06:19:06;4.30;99.90
44223;DHT22;29895;48.804;9.386;2023-04-03T06:21:32;4.40;99.90
44223;DHT22;29895;48.804;9.386;2023-04-03T06:23:58;4.40;99.90
44223;DHT22;29895;48.804;9.386;2023-04-03T06:26:24;4.30;99.90
44223;DHT22;29895;48.804;9.386;2023-04-03T06:28:49;4.30;99.90
44223;DHT22;29895;48.804;9.386;2023-04-03T06:31:15;4.40;99.90
44223;DHT22;29895;48.804;9.386;2023-04-03T06:33:41;4.40;99.90
44223;DHT22;29895;48.804;9.386;2023-04-03T06:36:07;4.30;99.90
44223;DHT22;29895;48.804;9.386;2023-04-03T06:38:33;4.40;99.90
44223;DHT22;29895;48.804;9.386;2023-04-03T06:40:59;4.40;99.90
44223;DHT22;29895;48.804;9.386;2023-04-03T06:43:25;4.40;99.90
44223;DHT22;29895;48.804;9.386;2023-04-03T06:45:51;4.50;99.90
44223;DHT22;29895;48.804;9.386;2023-04-03T06:48:17;4.50;99.90
44223;DHT22;29895;48.804;9.386;2023-04-03T06:50:43;4.50;99.90
44223;DHT22;29895;48.804;9.386;2023-04-03T06:53:09;4.40;99.90
44223;DHT22;29895;48.804;9.386;2023-04-03T06:55:35;4.30;99.90
44223;DHT22;29895;48.804;9.386;2023-04-03T06:58:01;4.40;99.90
44223;DHT22;29895;48.804;9.386;2023-04-03T07:00:27;4.60;99.90
44223;DHT22;29895;48.804;9.386;2023-04-03T07:02:53;4.60;99.90
44223;DHT22;29895;48.804;9.386;2023-04-03T07:05:18;4.80;99.90
44223;DHT22;29895;48.804;9.386;2023-04-03T07:07:44;4.90;99.90
44223;DHT22;29895;48.804;9.386;2023-04-03T07:10:10;4.80;99.90
44223;DHT22;29895;48.804;9.386;2023-04-03T07:12:37;4.80;99.90
44223;DHT22;29895;48.804;9.386;2023-04-03T07:15:04;5.00;99.90
44223;DHT22;29895;48.804;9.386;2023-04-03T07:17:30;5.00;99.90
44223;DHT22;29895;48.804;9.386;2023-04-03T07:19:56;5.20;99.90
44223;DHT22;29895;48.804;9.386;2023-04-03T07:22:22;5.20;99.90
44223;DHT22;29895;48.804;9.386;2023-04-03T07:24:48;5.10;99.90
44223;DHT22;29895;48.804;9.386;2023-04-03T07:27:13;5.00;99.90
44223;DHT22;29895;48.804;9.386;2023-04-03T07:29:39;5.10;99.90
44223;DHT22;29895;48.804;9.386;2023-04-03T07:32:06;5.10;99.90
44223;DHT22;29895;48.804;9.386;2023-04-03T07:34:32;5.20;99.90
44223;DHT22;29895;48.804;9.386;2023-04-03T07:36:58;5.20;99.90
44223;DHT22;29895;48.804;9.386;2023-04-03T07:39:24;5.20;99.90
44223;DHT22;29895;48.804;9.386;2023-04-03T07:41:50;5.20;99.90
44223;DHT22;29895;48.804;9.386;2023-04-03T07:44:17;5.30;99.90
44223;DHT22;29895;48.804;9.386;2023-04-03T07:46:42;5.30;99.90
44223;DHT22;29895;48.804;9.386;2023-04-03T07:49:08;5.40;99.90
44223;DHT22;29895;48.804;9.386;2023-04-03T07:51:34;5.50;99.90
44223;DHT22;29895;48.804;9.386;2023-04-03T07:54:00;5.50;99.90
44223;DHT22;29895;48.804;9.386;2023-04-03T07:56:25;5.50;99.90
44223;DHT22;29895;48.804;9.386;2023-04-03T07:58:51;5.30;99.90
44223;DHT22;29895;48.804;9.386;2023-04-03T08:01:16;5.10;99.90
44223;DHT22;29895;48.804;9.386;2023-04-03T08:03:42;5.10;99.90
44223;DHT22;29895;48.804;9.386;2023-04-03T08:06:09;5.20;99.90
44223;DHT22;29895;48.804;9.386;2023-04-03T08:08:36;5.20;99.90
44223;DHT22;29895;48.804;9.386;2023-04-03T08:11:02;5.20;99.90
44223;DHT22;29895;48.804;9.386;2023-04-03T08:13:29;5.20;99.90
44223;DHT22;29895;48.804;9.386;2023-04-03T08:15:55;5.30;99.90
44223;DHT22;29895;48.804;9.386;2023-04-03T08:18:23;5.70;99.90
44223;DHT22;29895;48.804;9.386;2023-04-03T08:20:51;5.90;99.90
44223;DHT22;29895;48.804;9.386;2023-04-03T08:23:17;6.10;99.90
44223;DHT22;29895;48.804;9.386;2023-04-03T08:25:43;6.30;99.90
44223;DHT22;29895;48.804;9.386;2023-04-03T08:28:10;6.00;99.90
44223;DHT22;29895;48.804;9.386;2023-04-03T08:30:40;5.80;99.90
44223;DHT22;29895;48.804;9.386;2023-04-03T08:33:06;5.90;99.90
44223;DHT22;29895;48.804;9.386;2023-04-03T08:35:32;6.00;99.90
44223;DHT22;29895;48.804;9.386;2023-04-03T08:37:58;6.10;99.90
44223;DHT22;29895;48.804;9.386;2023-04-03T08:40:24;6.10;99.90
44223;DHT22;29895;48.804;9.386;2023-04-03T08:48:01;6.00;99.90
44223;DHT22;29895;48.804;9.386;2023-04-03T08:50:35;6.20;99.90
44223;DHT22;29895;48.804;9.386;2023-04-03T08:53:03;5.90;99.90
44223;DHT22;29895;48.804;9.386;2023-04-03T08:55:34;5.80;99.90
44223;DHT22;29895;48.804;9.386;2023-04-03T08:58:22;5.90;99.90
44223;DHT22;29895;48.804;9.386;2023-04-03T09:00:59;6.10;99.90
44223;DHT22;29895;48.804;9.386;2023-04-03T09:03:30;6.40;99.90
44223;DHT22;29895;48.804;9.386;2023-04-03T09:06:04;6.60;99.90
44223;DHT22;29895;48.804;9.386;2023-04-03T09:08:40;6.70;99.90
44223;DHT22;29895;48.804;9.386;2023-04-03T09:11:41;6.60;99.90
44223;DHT22;29895;48.804;9.386;2023-04-03T09:17:21;6.50;99.90
44223;DHT22;29895;48.804;9.386;2023-04-03T09:22:45;6.70;99.90
44223;DHT22;29895;48.804;9.386;2023-04-03T09:25:18;6.70;99.90
44223;DHT22;29895;48.804;9.386;2023-04-03T09:27:45;6.60;99.90
44223;DHT22;29895;48.804;9.386;2023-04-03T09:30:23;6.30;99.90
44223;DHT22;29895;48.804;9.386;2023-04-03T09:32:52;6.20;99.90
44223;DHT22;29895;48.804;9.386;2023-04-03T09:37:57;6.40;99.90
44223;DHT22;29895;48.804;9.386;2023-04-03T09:42:55;6.10;99.90
44223;DHT22;29895;48.804;9.386;2023-04-03T09:50:52;6.00;99.90
44223;DHT22;29895;48.804;9.386;2023-04-03T09:53:40;6.40;99.90
44223;DHT22;29895;48.804;9.386;2023-04-03T09:58:43;6.60;99.90
44223;DHT22;29895;48.804;9.386;2023-04-03T10:06:42;6.40;99.90
44223;DHT22;29895;48.804;9.386;2023-04-03T10:09:32;6.20;99.90
44223;DHT22;29895;48.804;9.386;2023-04-03T10:12:11;6.10;99.90
44223;DHT22;29895;48.804;9.386;2023-04-03T10:15:01;5.90;99.90
44223;DHT22;29895;48.804;9.386;2023-04-03T10:20:23;5.90;99.90
44223;DHT22;29895;48.804;9.386;2023-04-03T10:23:00;6.00;99.90
44223;DHT22;29895;48.804;9.386;2023-04-03T10:28:10;6.10;99.90
44223;DHT22;29895;48.804;9.386;2023-04-03T10:36:10;6.10;99.90
44223;DHT22;29895;48.804;9.386;2023-04-03T10:44:30;6.20;99.90
44223;DHT22;29895;48.804;9.386;2023-04-03T10:50:11;6.50;99.90
44223;DHT22;29895;48.804;9.386;2023-04-03T10:55:59;6.80;99.90
44223;DHT22;29895;48.804;9.386;2023-04-03T10:58:32;6.70;99.90
44223;DHT22;29895;48.804;9.386;2023-04-03T11:01:12;6.60;99.10
44223;DHT22;29895;48.804;9.386;2023-04-03T11:03:42;6.40;98.60
44223;DHT22;29895;48.804;9.386;2023-04-03T11:06:11;6.60;99.10
44223;DHT22;29895;48.804;9.386;2023-04-03T11:11:13;7.20;99.10
44223;DHT22;29895;48.804;9.386;2023-04-03T11:14:17;7.40;98.20
44223;DHT22;29895;48.804;9.386;2023-04-03T11:16:48;7.40;97.00
44223;DHT22;29895;48.804;9.386;2023-04-03T11:20:17;7.40;97.10
44223;DHT22;29895;48.804;9.386;2023-04-03T11:24:49;7.30;98.70
44223;DHT22;29895;48.804;9.386;2023-04-03T11:27:19;7.30;98.80
44223;DHT22;29895;48.804;9.386;2023-04-03T11:29:49;7.10;98.40
44223;DHT22;29895;48.804;9.386;2023-04-03T11:35:02;7.00;97.30
44223;DHT22;29895;48.804;9.386;2023-04-03T11:37:45;6.90;97.90
44223;DHT22;29895;48.804;9.386;2023-04-03T11:42:46;6.70;98.50
44223;DHT22;29895;48.804;9.386;2023-04-03T11:47:59;6.50;98.90
44223;DHT22;29895;48.804;9.386;2023-04-03T11:58:34;6.80;99.00
44223;DHT22;29895;48.804;9.386;2023-04-03T12:16:30;6.60;98.40
44223;DHT22;29895;48.804;9.386;2023-04-03T12:40:08;7.20;96.50
44223;DHT22;29895;48.804;9.386;2023-04-03T12:45:22;8.00;97.00
44223;DHT22;29895;48.804;9.386;2023-04-03T12:47:51;7.80;97.80
44223;DHT22;29895;48.804;9.386;2023-04-03T12:50:30;7.70;98.40
44223;DHT22;29895;48.804;9.386;2023-04-03T12:53:02;7.40;98.00
44223;DHT22;29895;48.804;9.386;2023-04-03T12:55:29;7.10;97.90
44223;DHT22;29895;48.804;9.386;2023-04-03T12:57:56;6.90;98.30
44223;DHT22;29895;48.804;9.386;2023-04-03T13:00:34;6.80;98.20
44223;DHT22;29895;48.804;9.386;2023-04-03T13:03:02;6.90;98.10
44223;DHT22;29895;48.804;9.386;2023-04-03T13:05:30;7.20;98.20
44223;DHT22;29895;48.804;9.386;2023-04-03T13:08:00;7.40;97.70
44223;DHT22;29895;48.804;9.386;2023-04-03T13:10:27;7.80;96.50
44223;DHT22;29895;48.804;9.386;2023-04-03T13:12:58;8.00;96.60
44223;DHT22;29895;48.804;9.386;2023-04-03T13:15:43;7.80;95.70
44223;DHT22;29895;48.804;9.386;2023-04-03T13:18:31;7.80;94.70
44223;DHT22;29895;48.804;9.386;2023-04-03T13:21:07;7.80;94.40
44223;DHT22;29895;48.804;9.386;2023-04-03T13:23:36;7.60;95.30
44223;DHT22;29895;48.804;9.386;2023-04-03T13:26:04;8.00;95.40
44223;DHT22;29895;48.804;9.386;2023-04-03T13:28:31;7.80;94.80
44223;DHT22;29895;48.804;9.386;2023-04-03T13:33:29;8.00;94.50
44223;DHT22;29895;48.804;9.386;2023-04-03T13:36:05;8.20;94.50
44223;DHT22;29895;48.804;9.386;2023-04-03T13:38:35;8.00;94.20
44223;DHT22;29895;48.804;9.386;2023-04-03T13:44:22;8.00;94.50
44223;DHT22;29895;48.804;9.386;2023-04-03T13:46:52;7.90;95.10
44223;DHT22;29895;48.804;9.386;2023-04-03T13:51:59;7.50;95.50
44223;DHT22;29895;48.804;9.386;2023-04-03T13:54:37;7.40;95.40
44223;DHT22;29895;48.804;9.386;2023-04-03T13:57:10;7.50;95.50
44223;DHT22;29895;48.804;9.386;2023-04-03T13:59:37;7.50;95.60
44223;DHT22;29895;48.804;9.386;2023-04-03T14:04:31;7.60;95.50
44223;DHT22;29895;48.804;9.386;2023-04-03T14:06:57;7.60;95.30
44223;DHT22;29895;48.804;9.386;2023-04-03T14:09:25;7.60;95.60
44223;DHT22;29895;48.804;9.386;2023-04-03T14:11:54;7.70;95.20
44223;DHT22;29895;48.804;9.386;2023-04-03T14:14:29;8.10;95.10
44223;DHT22;29895;48.804;9.386;2023-04-03T14:16:58;7.90;94.60
44223;DHT22;29895;48.804;9.386;2023-04-03T14:19:28;7.60;95.80
44223;DHT22;29895;48.804;9.386;2023-04-03T14:21:56;7.30;96.30
44223;DHT22;29895;48.804;9.386;2023-04-03T14:24:22;7.20;96.30
44223;DHT22;29895;48.804;9.386;2023-04-03T14:26:49;7.20;96.30
44223;DHT22;29895;48.804;9.386;2023-04-03T14:29:16;7.30;95.80
44223;DHT22;29895;48.804;9.386;2023-04-03T14:31:43;7.30;96.00
44223;DHT22;29895;48.804;9.386;2023-04-03T14:34:14;7.40;96.00
44223;DHT22;29895;48.804;9.386;2023-04-03T14:36:41;7.40;95.10
44223;DHT22;29895;48.804;9.386;2023-04-03T14:39:11;7.30;95.80
44223;DHT22;29895;48.804;9.386;2023-04-03T14:41:41;7.40;94.70
44223;DHT22;29895;48.804;9.386;2023-04-03T14:44:07;7.40;94.50
44223;DHT22;29895;48.804;9.386;2023-04-03T14:46:36;7.40;95.00
44223;DHT22;29895;48.804;9.386;2023-04-03T14:49:04;7.40;93.90
44223;DHT22;29895;48.804;9.386;2023-04-03T14:51:33;7.50;95.00
44223;DHT22;29895;48.804;9.386;2023-04-03T14:53:59;7.70;95.10
44223;DHT22;29895;48.804;9.386;2023-04-03T14:56:28;7.40;94.40
44223;DHT22;29895;48.804;9.386;2023-04-03T14:58:59;7.30;95.30
44223;DHT22;29895;48.804;9.386;2023-04-03T15:01:26;7.20;94.80
44223;DHT22;29895;48.804;9.386;2023-04-03T15:03:51;7.10;94.50
44223;DHT22;29895;48.804;9.386;2023-04-03T15:06:18;7.10;94.60
44223;DHT22;29895;48.804;9.386;2023-04-03T15:08:44;7.30;94.50
44223;DHT22;29895;48.804;9.386;2023-04-03T15:11:11;7.10;94.30
44223;DHT22;29895;48.804;9.386;2023-04-03T15:13:37;7.20;94.90
44223;DHT22;29895;48.804;9.386;2023-04-03T15:16:04;7.20;95.40
44223;DHT22;29895;48.804;9.386;2023-04-03T15:18:35;7.20;94.60
44223;DHT22;29895;48.804;9.386;2023-04-03T15:21:03;6.90;94.80
44223;DHT22;29895;48.804;9.386;2023-04-03T15:23:28;6.80;95.20
44223;DHT22;29895;48.804;9.386;2023-04-03T15:25:55;7.00;95.70
44223;DHT22;29895;48.804;9.386;2023-04-03T15:30:47;7.10;95.40
44223;DHT22;29895;48.804;9.386;2023-04-03T15:33:13;7.20;95.00
44223;DHT22;29895;48.804;9.386;2023-04-03T15:35:41;7.40;93.60
44223;DHT22;29895;48.804;9.386;2023-04-03T15:38:07;7.50;93.60
44223;DHT22;29895;48.804;9.386;2023-04-03T15:40:32;7.40;93.40
44223;DHT22;29895;48.804;9.386;2023-04-03T15:42:58;7.40;93.40
44223;DHT22;29895;48.804;9.386;2023-04-03T15:45:24;7.20;92.70
44223;DHT22;29895;48.804;9.386;2023-04-03T15:47:49;7.00;93.30
44223;DHT22;29895;48.804;9.386;2023-04-03T15:50:16;6.90;93.70
44223;DHT22;29895;48.804;9.386;2023-04-03T15:52:42;6.90;93.40
44223;DHT22;29895;48.804;9.386;2023-04-03T15:55:08;6.90;93.90
44223;DHT22;29895;48.804;9.386;2023-04-03T15:57:34;7.00;93.80
44223;DHT22;29895;48.804;9.386;2023-04-03T15:59:59;7.10;93.90
44223;DHT22;29895;48.804;9.386;2023-04-03T16:02:25;7.00;93.60
44223;DHT22;29895;48.804;9.386;2023-04-03T16:04:54;7.10;92.50
44223;DHT22;29895;48.804;9.386;2023-04-03T16:07:20;7.20;92.80
44223;DHT22;29895;48.804;9.386;2023-04-03T16:09:46;7.20;92.50
44223;DHT22;29895;48.804;9.386;2023-04-03T16:12:12;7.20;92.20
44223;DHT22;29895;48.804;9.386;2023-04-03T16:14:38;7.30;92.20
44223;DHT22;29895;48.804;9.386;2023-04-03T16:17:03;7.30;92.60
44223;DHT22;29895;48.804;9.386;2023-04-03T16:19:29;7.20;92.70
44223;DHT22;29895;48.804;9.386;2023-04-03T16:21:55;7.40;92.90
44223;DHT22;29895;48.804;9.386;2023-04-03T16:24:22;7.20;92.70
44223;DHT22;29895;48.804;9.386;2023-04-03T16:26:48;7.00;93.20
44223;DHT22;29895;48.804;9.386;2023-04-03T16:29:13;6.90;93.10
44223;DHT22;29895;48.804;9.386;2023-04-03T16:31:39;6.90;93.40
44223;DHT22;29895;48.804;9.386;2023-04-03T16:34:05;7.00;93.70
44223;DHT22;29895;48.804;9.386;2023-04-03T16:36:31;7.10;93.30
44223;DHT22;29895;48.804;9.386;2023-04-03T16:38:56;7.20;93.40
44223;DHT22;29895;48.804;9.386;2023-04-03T16:41:22;7.30;93.20
44223;DHT22;29895;48.804;9.386;2023-04-03T16:43:48;7.30;93.00
44223;DHT22;29895;48.804;9.386;2023-04-03T16:46:13;7.20;93.20
44223;DHT22;29895;48.804;9.386;2023-04-03T16:48:39;7.20;93.60
44223;DHT22;29895;48.804;9.386;2023-04-03T16:51:05;7.20;93.70
44223;DHT22;29895;48.804;9.386;2023-04-03T16:53:30;7.10;93.20
44223;DHT22;29895;48.804;9.386;2023-04-03T16:55:57;7.00;92.70
44223;DHT22;29895;48.804;9.386;2023-04-03T16:58:23;6.90;92.50
44223;DHT22;29895;48.804;9.386;2023-04-03T17:00:49;6.80;92.80
44223;DHT22;29895;48.804;9.386;2023-04-03T17:03:15;6.70;93.10
44223;DHT22;29895;48.804;9.386;2023-04-03T17:05:40;6.70;93.20
44223;DHT22;29895;48.804;9.386;2023-04-03T17:08:06;6.60;93.30
44223;DHT22;29895;48.804;9.386;2023-04-03T17:10:32;6.60;93.20
44223;DHT22;29895;48.804;9.386;2023-04-03T17:13:00;6.60;93.50
44223;DHT22;29895;48.804;9.386;2023-04-03T17:15:26;6.50;93.70
44223;DHT22;29895;48.804;9.386;2023-04-03T17:17:52;6.50;94.00
44223;DHT22;29895;48.804;9.386;2023-04-03T17:20:18;6.60;93.90
44223;DHT22;29895;48.804;9.386;2023-04-03T17:22:44;6.60;93.90
44223;DHT22;29895;48.804;9.386;2023-04-03T17:25:11;6.60;93.80
44223;DHT22;29895;48.804;9.386;2023-04-03T17:27:37;6.60;93.50
44223;DHT22;29895;48.804;9.386;2023-04-03T17:30:03;6.60;93.70
44223;DHT22;29895;48.804;9.386;2023-04-03T17:32:29;6.50;93.70
44223;DHT22;29895;48.804;9.386;2023-04-03T17:34:55;6.60;94.00
44223;DHT22;29895;48.804;9.386;2023-04-03T17:37:21;6.60;94.00
44223;DHT22;29895;48.804;9.386;2023-04-03T17:39:46;6.60;94.20
44223;DHT22;29895;48.804;9.386;2023-04-03T17:42:12;6.60;94.20
44223;DHT22;29895;48.804;9.386;2023-04-03T17:44:38;6.50;94.20
44223;DHT22;29895;48.804;9.386;2023-04-03T17:47:03;6.50;94.30
44223;DHT22;29895;48.804;9.386;2023-04-03T17:49:29;6.40;94.50
44223;DHT22;29895;48.804;9.386;2023-04-03T17:51:55;6.30;94.90
44223;DHT22;29895;48.804;9.386;2023-04-03T17:54:20;6.40;94.80
44223;DHT22;29895;48.804;9.386;2023-04-03T17:56:46;6.30;94.70
44223;DHT22;29895;48.804;9.386;2023-04-03T17:59:14;6.40;95.10
44223;DHT22;29895;48.804;9.386;2023-04-03T18:01:42;6.30;95.10
44223;DHT22;29895;48.804;9.386;2023-04-03T18:04:08;6.30;94.90
44223;DHT22;29895;48.804;9.386;2023-04-03T18:06:53;6.20;95.00